createdAt,value
2018-12-18T00:01:25.154Z,12.15
2018-12-18T00:03:54.217Z,12.03
2018-12-18T00:06:22.600Z,12.14
2018-12-18T00:08:51.556Z,11.73
2018-12-18T00:11:21.176Z,12.16
2018-12-18T00:13:50.253Z,12.18
2018-12-18T00:16:19.828Z,12.26
2018-12-18T00:18:48.245Z,11.94
2018-12-18T00:21:17.667Z,11.60
2018-12-18T00:23:46.763Z,11.53
2018-12-18T00:26:15.364Z,11.79
2018-12-18T00:28:43.853Z,11.81
2018-12-18T00:31:12.629Z,12.36
2018-12-18T00:33:46.070Z,12.02
2018-12-18T00:36:11.389Z,11.66
2018-12-18T00:38:39.639Z,11.92
2018-12-18T00:41:08.333Z,12.42
2018-12-18T00:43:36.741Z,12.28
2018-12-18T00:46:05.046Z,12.75
2018-12-18T00:48:33.362Z,12.91
2018-12-18T00:51:04.904Z,13.02
2018-12-18T00:53:33.141Z,12.87
2018-12-18T00:56:01.512Z,12.90
2018-12-18T00:58:29.849Z,12.85
2018-12-18T01:00:58.354Z,12.65
2018-12-18T01:03:26.770Z,12.65
2018-12-18T01:05:55.186Z,12.76
2018-12-18T01:08:23.490Z,12.89
2018-12-18T01:10:52.000Z,12.96
2018-12-18T01:13:20.266Z,12.71
2018-12-18T01:15:48.532Z,12.82
2018-12-18T01:18:17.567Z,12.68
2018-12-18T01:20:46.507Z,12.65
2018-12-18T01:23:15.970Z,12.04
2018-12-18T01:25:44.518Z,12.01
2018-12-18T01:28:13.239Z,11.82
2018-12-18T01:30:41.790Z,11.47
2018-12-18T01:33:10.958Z,11.64
2018-12-18T01:35:40.146Z,11.60
2018-12-18T01:38:09.777Z,11.71
2018-12-18T01:40:38.293Z,11.51
2018-12-18T01:43:08.265Z,11.14
2018-12-18T01:45:38.140Z,11.46
2018-12-18T01:48:06.701Z,11.27
2018-12-18T01:50:35.167Z,11.02
2018-12-18T01:53:03.449Z,11.05
2018-12-18T01:55:31.712Z,11.16
2018-12-18T01:58:00.209Z,11.09
2018-12-18T02:00:28.441Z,11.33
2018-12-18T02:02:56.835Z,11.28
2018-12-18T02:05:25.148Z,11.56
2018-12-18T02:07:53.424Z,11.57
2018-12-18T02:10:21.856Z,10.85
2018-12-18T02:12:50.105Z,10.82
2018-12-18T02:15:18.447Z,10.90
2018-12-18T02:17:46.705Z,10.81
2018-12-18T02:20:15.004Z,10.87
2018-12-18T02:22:43.368Z,10.50
2018-12-18T02:25:11.738Z,10.45
2018-12-18T02:27:40.103Z,10.64
2018-12-18T02:30:08.637Z,10.58
2018-12-18T02:32:36.921Z,10.58
2018-12-18T02:35:05.849Z,10.73
2018-12-18T02:37:34.448Z,10.75
2018-12-18T02:40:02.672Z,10.59
2018-12-18T02:42:31.014Z,10.69
2018-12-18T02:44:59.456Z,10.69
2018-12-18T02:47:27.721Z,10.25
2018-12-18T02:49:56.029Z,10.42
2018-12-18T02:52:24.422Z,10.60
2018-12-18T02:54:52.814Z,10.85
2018-12-18T02:57:21.256Z,10.77
2018-12-18T02:59:49.658Z,10.65
2018-12-18T03:02:18.088Z,10.81
2018-12-18T03:04:46.425Z,11.15
2018-12-18T03:07:14.775Z,10.69
2018-12-18T03:12:33.699Z,10.71
2018-12-18T03:15:01.975Z,10.80
2018-12-18T03:17:30.706Z,11.13
2018-12-18T03:19:59.120Z,11.37
2018-12-18T03:22:27.474Z,11.43
2018-12-18T03:24:56.045Z,11.34
2018-12-18T03:27:24.613Z,11.19
2018-12-18T03:29:54.765Z,11.09
2018-12-18T03:32:27.438Z,10.82
2018-12-18T03:34:56.596Z,10.82
2018-12-18T03:37:25.081Z,10.58
2018-12-18T03:39:53.838Z,10.58
2018-12-18T03:42:22.591Z,10.59
2018-12-18T03:44:52.432Z,10.66
2018-12-18T03:47:21.117Z,10.54
2018-12-18T03:49:49.817Z,10.48
2018-12-18T03:52:18.893Z,10.51
2018-12-18T03:54:47.451Z,10.34
2018-12-18T03:57:15.859Z,10.41
2018-12-18T03:59:44.808Z,10.18
2018-12-18T04:02:14.659Z,10.38
2018-12-18T04:04:43.657Z,10.26
2018-12-18T04:07:12.036Z,10.24
2018-12-18T04:09:40.789Z,10.21
2018-12-18T04:12:12.634Z,10.11
2018-12-18T04:14:41.270Z,9.93
2018-12-18T04:17:09.794Z,10.11
2018-12-18T04:19:38.738Z,10.11
2018-12-18T04:22:07.942Z,10.05
2018-12-18T04:24:36.447Z,9.83
2018-12-18T04:27:04.813Z,10.18
2018-12-18T04:29:33.169Z,10.16
2018-12-18T04:32:01.621Z,10.38
2018-12-18T04:34:29.956Z,10.47
2018-12-18T04:36:58.241Z,10.53
2018-12-18T04:39:26.579Z,10.38
2018-12-18T04:41:54.833Z,10.67
2018-12-18T04:44:23.161Z,10.65
2018-12-18T04:46:51.430Z,10.43
2018-12-18T04:49:19.712Z,10.37
2018-12-18T04:51:47.962Z,10.24
2018-12-18T04:54:16.201Z,10.20
2018-12-18T04:56:44.472Z,10.05
2018-12-18T04:59:12.827Z,9.78
2018-12-18T05:01:41.160Z,9.92
2018-12-18T05:04:09.847Z,9.78
2018-12-18T05:06:38.274Z,9.78
2018-12-18T05:09:09.053Z,9.54
2018-12-18T05:11:37.931Z,9.14
2018-12-18T05:14:06.559Z,9.26
2018-12-18T05:16:34.944Z,9.11
2018-12-18T05:19:03.266Z,9.14
2018-12-18T05:21:31.747Z,9.25
2018-12-18T05:24:00.141Z,9.27
2018-12-18T05:26:28.428Z,9.23
2018-12-18T05:28:56.630Z,9.05
2018-12-18T05:31:24.941Z,9.09
2018-12-18T05:33:53.261Z,8.88
2018-12-18T05:36:21.569Z,8.76
2018-12-18T05:38:50.063Z,9.11
2018-12-18T05:41:18.463Z,8.85
2018-12-18T05:43:46.847Z,8.73
2018-12-18T05:46:15.134Z,8.78
2018-12-18T05:48:43.370Z,9.05
2018-12-18T05:51:11.652Z,8.75
2018-12-18T05:53:40.160Z,8.91
2018-12-18T05:56:08.482Z,8.80
2018-12-18T05:58:37.119Z,8.88
2018-12-18T06:01:05.555Z,9.00
2018-12-18T06:03:33.820Z,9.03
2018-12-18T06:06:02.207Z,8.89
2018-12-18T06:08:30.568Z,8.87
2018-12-18T06:10:58.967Z,8.97
2018-12-18T06:13:27.225Z,8.82
2018-12-18T06:15:55.635Z,8.68
2018-12-18T06:18:24.039Z,8.50
2018-12-18T06:20:52.565Z,8.58
2018-12-18T06:23:21.106Z,8.78
2018-12-18T06:25:49.561Z,8.60
2018-12-18T06:28:17.968Z,8.71
2018-12-18T06:30:46.470Z,8.70
2018-12-18T06:33:14.904Z,8.67
2018-12-18T06:35:43.286Z,8.66
2018-12-18T06:38:11.738Z,8.53
2018-12-18T06:40:41.331Z,8.58
2018-12-18T06:43:10.039Z,8.42
2018-12-18T06:45:38.362Z,8.46
2018-12-18T06:48:06.890Z,8.38
2018-12-18T06:50:35.229Z,8.34
2018-12-18T06:53:03.681Z,8.22
2018-12-18T06:55:31.981Z,8.47
2018-12-18T06:58:00.797Z,8.49
2018-12-18T07:00:29.038Z,8.18
2018-12-18T07:02:57.419Z,8.31
2018-12-18T07:05:25.775Z,8.27
2018-12-18T07:07:57.452Z,8.34
2018-12-18T07:10:25.966Z,8.45
2018-12-18T07:12:54.497Z,8.09
2018-12-18T07:15:24.653Z,8.10
2018-12-18T07:17:53.187Z,8.09
2018-12-18T07:20:21.559Z,7.94
2018-12-18T07:22:49.853Z,8.09
2018-12-18T07:25:18.101Z,7.56
2018-12-18T07:27:46.432Z,7.74
2018-12-18T07:30:14.695Z,7.53
2018-12-18T07:32:43.054Z,7.63
2018-12-18T07:35:11.425Z,7.66
2018-12-18T07:37:39.801Z,8.16
2018-12-18T07:40:08.228Z,8.00
2018-12-18T07:42:36.485Z,7.78
2018-12-18T07:45:05.758Z,7.68
2018-12-18T07:47:34.150Z,7.77
2018-12-18T07:50:02.405Z,7.54
2018-12-18T07:52:30.905Z,7.83
2018-12-18T07:54:59.405Z,7.22
2018-12-18T07:57:27.675Z,7.94
2018-12-18T07:59:56.020Z,8.22
2018-12-18T08:02:24.242Z,7.84
2018-12-18T08:04:52.869Z,8.24
2018-12-18T08:07:21.169Z,8.33
2018-12-18T08:09:49.449Z,8.34
2018-12-18T08:12:19.969Z,8.31
2018-12-18T08:14:48.311Z,8.57
2018-12-18T08:17:16.828Z,8.61
2018-12-18T08:19:45.082Z,8.80
2018-12-18T08:22:13.448Z,8.51
2018-12-18T08:24:41.822Z,9.03
2018-12-18T08:27:10.355Z,9.18
2018-12-18T08:29:38.743Z,9.26
2018-12-18T08:32:06.978Z,9.39
2018-12-18T08:34:35.359Z,9.39
2018-12-18T08:37:03.695Z,9.45
2018-12-18T08:39:32.047Z,9.10
2018-12-18T08:42:00.428Z,9.27
2018-12-18T08:44:28.875Z,9.50
2018-12-18T08:46:57.292Z,9.29
2018-12-18T08:49:25.736Z,8.80
2018-12-18T08:51:54.019Z,8.98
2018-12-18T08:54:22.389Z,9.25
2018-12-18T08:56:51.102Z,9.56
2018-12-18T08:59:19.397Z,9.90
2018-12-18T09:01:47.879Z,10.35
2018-12-18T09:04:16.373Z,10.31
2018-12-18T09:06:44.702Z,10.36
2018-12-18T09:09:13.881Z,10.06
2018-12-18T09:11:42.185Z,9.97
2018-12-18T09:14:11.602Z,10.27
2018-12-18T09:16:45.344Z,10.63
2018-12-18T09:19:13.623Z,10.48
2018-12-18T09:21:41.971Z,10.61
2018-12-18T09:24:10.269Z,10.64
2018-12-18T09:26:38.626Z,10.51
2018-12-18T09:29:06.940Z,10.23
2018-12-18T09:31:35.348Z,10.46
2018-12-18T09:34:03.749Z,10.78
2018-12-18T09:36:32.164Z,10.67
2018-12-18T09:39:05.744Z,10.73
2018-12-18T09:41:39.960Z,10.55
2018-12-18T09:44:12.769Z,11.08
2018-12-18T09:46:41.452Z,11.21
2018-12-18T09:49:10.279Z,11.44
2018-12-18T09:51:39.834Z,11.21
2018-12-18T09:54:08.716Z,11.41
2018-12-18T09:56:42.245Z,11.08
2018-12-18T09:59:10.616Z,11.18
2018-12-18T10:01:40.151Z,11.20
2018-12-18T10:04:09.208Z,11.55
2018-12-18T10:06:37.571Z,11.41
2018-12-18T10:09:10.149Z,10.88
2018-12-18T10:11:38.715Z,11.42
2018-12-18T10:14:07.059Z,11.34
2018-12-18T10:16:36.502Z,11.06
2018-12-18T10:19:05.196Z,11.27
2018-12-18T10:21:33.469Z,10.96
2018-12-18T10:24:01.731Z,11.34
2018-12-18T10:26:30.256Z,11.51
2018-12-18T10:28:58.613Z,11.59
2018-12-18T10:31:27.090Z,11.38
2018-12-18T10:33:55.345Z,11.95
2018-12-18T10:36:24.077Z,12.34
2018-12-18T10:38:52.407Z,12.04
2018-12-18T10:41:20.864Z,12.30
2018-12-18T10:43:49.764Z,12.47
2018-12-18T10:46:18.165Z,12.56
2018-12-18T10:48:46.595Z,12.33
2018-12-18T10:51:19.129Z,12.12
2018-12-18T10:53:47.683Z,12.19
2018-12-18T10:56:16.023Z,12.35
2018-12-18T10:58:45.002Z,12.54
2018-12-18T11:01:18.596Z,12.74
2018-12-18T11:03:48.525Z,12.97
2018-12-18T11:06:16.915Z,12.96
2018-12-18T11:08:45.319Z,12.99
2018-12-18T11:11:13.895Z,12.72
2018-12-18T11:13:43.336Z,12.57
2018-12-18T11:16:11.624Z,12.96
2018-12-18T11:18:42.258Z,12.47
2018-12-18T11:21:11.023Z,13.00
2018-12-18T11:23:39.304Z,12.73
2018-12-18T11:26:10.166Z,13.07
2018-12-18T11:28:38.523Z,13.32
2018-12-18T11:31:07.523Z,13.43
2018-12-18T11:33:35.849Z,13.71
2018-12-18T11:36:04.834Z,13.82
2018-12-18T11:38:33.919Z,14.39
2018-12-18T11:41:02.860Z,14.21
2018-12-18T11:43:31.876Z,14.30
2018-12-18T11:46:00.557Z,14.40
2018-12-18T11:48:28.949Z,14.54
2018-12-18T11:50:57.402Z,15.17
2018-12-18T11:53:25.804Z,14.96
2018-12-18T11:55:54.234Z,16.03
2018-12-18T11:58:22.630Z,16.04
2018-12-18T12:00:51.281Z,16.07
2018-12-18T12:03:20.389Z,17.29
2018-12-18T12:05:48.810Z,17.59
2018-12-18T12:08:17.255Z,18.24
2018-12-18T12:10:45.523Z,19.66
2018-12-18T12:13:14.948Z,20.07
2018-12-18T12:15:43.221Z,18.62
2018-12-18T12:18:11.593Z,19.02
2018-12-18T12:20:39.905Z,20.66
2018-12-18T12:23:08.244Z,20.14
2018-12-18T12:25:36.541Z,19.62
2018-12-18T12:28:06.335Z,20.51
2018-12-18T12:30:35.422Z,21.69
2018-12-18T12:33:03.690Z,21.80
2018-12-18T12:35:33.030Z,21.44
2018-12-18T12:38:01.327Z,22.00
2018-12-18T12:40:29.744Z,20.83
2018-12-18T12:42:58.225Z,20.34
2018-12-18T12:45:26.494Z,20.65
2018-12-18T12:47:58.552Z,20.89
2018-12-18T12:50:26.873Z,21.69
2018-12-18T12:52:55.117Z,21.35
2018-12-18T12:55:23.666Z,21.68
2018-12-18T12:57:51.997Z,21.73
2018-12-18T13:00:20.249Z,21.07
2018-12-18T13:02:48.487Z,21.03
2018-12-18T13:05:16.802Z,20.63
2018-12-18T13:07:45.104Z,20.91
2018-12-18T13:10:13.494Z,19.70
2018-12-18T13:12:41.799Z,19.86
2018-12-18T13:15:10.127Z,20.02
2018-12-18T13:17:38.704Z,19.35
2018-12-18T13:20:07.164Z,19.85
2018-12-18T13:22:35.390Z,19.73
2018-12-18T13:25:04.194Z,18.50
2018-12-18T13:27:32.618Z,19.05
2018-12-18T13:30:01.130Z,19.10
2018-12-18T13:32:29.406Z,19.04
2018-12-18T13:34:57.926Z,19.36
2018-12-18T13:37:26.216Z,19.96
2018-12-18T13:39:54.938Z,19.45
2018-12-18T13:42:23.192Z,19.22
2018-12-18T13:44:51.574Z,19.25
2018-12-18T13:47:19.926Z,19.40
2018-12-18T13:49:48.189Z,20.11
2018-12-18T13:52:16.684Z,20.54
2018-12-18T13:54:45.148Z,19.60
2018-12-18T13:57:13.546Z,20.11
2018-12-18T13:59:41.980Z,19.50
2018-12-18T14:02:10.650Z,17.91
2018-12-18T14:04:39.002Z,18.16
2018-12-18T14:07:07.529Z,19.07
2018-12-18T14:09:36.812Z,18.60
2018-12-18T14:12:05.526Z,17.42
2018-12-18T14:14:33.792Z,17.70
2018-12-18T14:17:02.113Z,17.73
2018-12-18T14:19:30.529Z,17.86
2018-12-18T14:21:58.954Z,18.06
2018-12-18T14:24:27.254Z,18.24
2018-12-18T14:26:55.555Z,18.41
2018-12-18T14:29:23.855Z,18.09
2018-12-18T14:31:52.246Z,17.61
2018-12-18T14:34:20.589Z,17.90
2018-12-18T14:36:48.981Z,17.11
2018-12-18T14:39:17.521Z,16.20
2018-12-18T14:41:46.064Z,15.38
2018-12-18T14:44:14.839Z,15.65
2018-12-18T14:46:43.395Z,15.08
2018-12-18T14:49:11.760Z,14.28
2018-12-18T14:51:40.432Z,14.35
2018-12-18T14:54:08.839Z,14.54
2018-12-18T14:56:37.497Z,14.10
2018-12-18T14:59:05.864Z,13.63
2018-12-18T15:01:34.292Z,13.99
2018-12-18T15:04:02.762Z,13.78
2018-12-18T15:06:31.300Z,13.80
2018-12-18T15:08:59.599Z,13.60
2018-12-18T15:11:27.877Z,12.57
2018-12-18T15:13:56.201Z,12.56
2018-12-18T15:16:24.561Z,12.72
2018-12-18T15:18:53.392Z,12.66
2018-12-18T15:21:21.656Z,12.45
2018-12-18T15:23:50.232Z,12.21
2018-12-18T15:26:18.817Z,12.26
2018-12-18T15:28:47.151Z,12.22
2018-12-18T15:31:15.447Z,11.82
2018-12-18T15:33:43.766Z,11.88
2018-12-18T15:36:13.207Z,11.87
2018-12-18T15:38:41.784Z,11.52
2018-12-18T15:41:10.296Z,11.64
2018-12-18T15:43:43.664Z,11.39
2018-12-18T15:46:12.040Z,11.56
2018-12-18T15:48:40.412Z,11.40
2018-12-18T15:51:08.749Z,11.26
2018-12-18T15:53:37.354Z,11.33
2018-12-18T15:56:05.760Z,11.31
2018-12-18T15:58:34.218Z,11.32
2018-12-18T16:01:02.553Z,11.30
2018-12-18T16:03:31.173Z,10.98
2018-12-18T16:05:59.681Z,11.08
2018-12-18T16:08:28.142Z,11.26
2018-12-18T16:10:56.855Z,11.00
2018-12-18T16:13:25.268Z,10.75
2018-12-18T16:15:53.749Z,11.03
2018-12-18T16:18:22.106Z,10.78
2018-12-18T16:20:50.493Z,10.83
2018-12-18T16:23:18.966Z,10.67
2018-12-18T16:25:47.428Z,10.51
2018-12-18T16:28:15.721Z,10.36
2018-12-18T16:30:44.038Z,10.77
2018-12-18T16:33:12.484Z,10.71
2018-12-18T16:35:46.204Z,10.62
2018-12-18T16:38:11.200Z,10.52
2018-12-18T16:40:40.081Z,10.00
2018-12-18T16:43:08.412Z,10.04
2018-12-18T16:45:36.717Z,10.23
2018-12-18T16:48:05.950Z,10.26
2018-12-18T16:50:34.931Z,9.98
2018-12-18T16:53:03.415Z,10.16
2018-12-18T16:55:31.724Z,10.33
2018-12-18T16:58:00.136Z,10.07
2018-12-18T17:00:28.430Z,10.06
2018-12-18T17:02:56.702Z,10.30
2018-12-18T17:05:25.130Z,9.71
2018-12-18T17:07:53.538Z,9.96
2018-12-18T17:10:21.940Z,9.65
2018-12-18T17:12:57.191Z,10.22
2018-12-18T17:15:25.893Z,10.14
2018-12-18T17:17:54.299Z,10.20
2018-12-18T17:20:22.615Z,9.71
2018-12-18T17:22:51.000Z,9.82
2018-12-18T17:25:19.258Z,9.87
2018-12-18T17:27:47.556Z,9.34
2018-12-18T17:30:15.919Z,9.30
2018-12-18T17:32:44.212Z,9.68
2018-12-18T17:35:12.512Z,9.61
2018-12-18T17:37:40.838Z,9.21
2018-12-18T17:40:09.454Z,9.45
2018-12-18T17:42:37.696Z,9.70
2018-12-18T17:45:07.327Z,9.22
2018-12-18T17:47:35.714Z,9.54
2018-12-18T17:50:05.022Z,9.38
2018-12-18T17:52:33.447Z,9.57
2018-12-18T17:55:01.788Z,9.46
2018-12-18T17:57:30.161Z,9.66
2018-12-18T17:59:58.679Z,9.43
2018-12-18T18:02:27.131Z,9.26
2018-12-18T18:04:55.413Z,9.67
2018-12-18T18:07:23.872Z,9.62
2018-12-18T18:09:52.324Z,9.28
2018-12-18T18:12:20.697Z,9.37
2018-12-18T18:14:49.107Z,9.34
2018-12-18T18:17:17.450Z,9.12
2018-12-18T18:19:45.787Z,9.18
2018-12-18T18:22:14.269Z,9.40
2018-12-18T18:24:42.668Z,9.22
2018-12-18T18:27:10.984Z,9.52
2018-12-18T18:29:39.498Z,9.70
2018-12-18T18:32:07.878Z,9.41
2018-12-18T18:34:36.208Z,9.48
2018-12-18T18:37:04.787Z,9.39
2018-12-18T18:39:33.204Z,9.46
2018-12-18T18:42:01.815Z,9.66
2018-12-18T18:44:30.314Z,9.71
2018-12-18T18:46:58.649Z,9.40
2018-12-18T18:49:27.651Z,9.43
2018-12-18T18:51:55.931Z,9.51
2018-12-18T18:54:24.340Z,9.15
2018-12-18T18:56:52.869Z,9.42
2018-12-18T18:59:21.502Z,9.61
2018-12-18T19:01:49.753Z,9.49
2018-12-18T19:04:18.316Z,9.32
2018-12-18T19:06:46.802Z,9.20
2018-12-18T19:09:15.077Z,9.36
2018-12-18T19:11:43.632Z,9.02
2018-12-18T19:14:12.183Z,9.16
2018-12-18T19:16:40.736Z,9.00
2018-12-18T19:19:09.791Z,8.96
2018-12-18T19:21:38.208Z,9.04
2018-12-18T19:24:06.543Z,9.07
2018-12-18T19:26:34.842Z,9.05
2018-12-18T19:29:03.250Z,8.88
2018-12-18T19:31:31.638Z,8.84
2018-12-18T19:34:00.922Z,8.63
2018-12-18T19:36:29.743Z,8.52
2018-12-18T19:38:58.201Z,8.54
2018-12-18T19:41:26.600Z,8.91
2018-12-18T19:43:55.245Z,8.81
2018-12-18T19:46:23.635Z,8.38
2018-12-18T19:48:51.970Z,8.33
2018-12-18T19:51:20.300Z,8.77
2018-12-18T19:53:48.692Z,8.73
2018-12-18T19:56:17.002Z,8.37
2018-12-18T19:58:45.488Z,8.28
2018-12-18T20:01:13.779Z,8.33
2018-12-18T20:03:42.179Z,8.17
2018-12-18T20:06:10.467Z,8.07
2018-12-18T20:08:38.883Z,7.86
2018-12-18T20:11:07.304Z,7.95
2018-12-18T20:13:35.686Z,8.38
2018-12-18T20:16:03.963Z,8.55
2018-12-18T20:18:32.244Z,8.21
2018-12-18T20:21:00.759Z,8.42
2018-12-18T20:23:29.151Z,8.34
2018-12-18T20:25:57.806Z,8.19
2018-12-18T20:28:26.097Z,8.33
2018-12-18T20:30:54.426Z,8.09
2018-12-18T20:33:22.911Z,8.40
2018-12-18T20:35:51.305Z,8.35
2018-12-18T20:38:19.713Z,8.03
2018-12-18T20:40:48.239Z,7.88
2018-12-18T20:43:16.926Z,8.30
2018-12-18T20:45:45.352Z,8.36
2018-12-18T20:48:13.816Z,8.05
2018-12-18T20:50:42.182Z,8.24
2018-12-18T20:53:10.523Z,8.69
2018-12-18T20:55:38.830Z,8.51
2018-12-18T20:58:07.133Z,8.40
2018-12-18T21:00:35.557Z,8.32
2018-12-18T21:03:04.084Z,7.96
2018-12-18T21:05:32.474Z,8.35
2018-12-18T21:08:00.883Z,7.95
2018-12-18T21:10:29.340Z,8.18
2018-12-18T21:13:03.058Z,8.11
2018-12-18T21:15:31.425Z,8.11
2018-12-18T21:17:59.732Z,8.09
2018-12-18T21:20:28.136Z,8.33
2018-12-18T21:22:56.462Z,8.15
2018-12-18T21:25:24.810Z,8.09
2018-12-18T21:27:53.082Z,8.02
2018-12-18T21:30:21.514Z,8.26
2018-12-18T21:32:49.925Z,8.17
2018-12-18T21:35:18.290Z,8.35
2018-12-18T21:37:46.688Z,8.42
2018-12-18T21:40:15.112Z,8.02
2018-12-18T21:42:43.445Z,8.28
2018-12-18T21:45:11.907Z,8.33
2018-12-18T21:47:40.196Z,8.47
2018-12-18T21:50:08.697Z,8.63
2018-12-18T21:52:37.226Z,8.71
2018-12-18T21:55:05.912Z,8.10
2018-12-18T21:57:34.340Z,8.66
2018-12-18T22:00:02.984Z,8.48
2018-12-18T22:02:31.344Z,8.40
2018-12-18T22:04:59.697Z,8.65
2018-12-18T22:07:27.953Z,8.34
2018-12-18T22:09:56.450Z,8.62
2018-12-18T22:12:24.787Z,8.52
2018-12-18T22:14:53.147Z,8.68
2018-12-18T22:17:21.600Z,8.52
2018-12-18T22:19:49.956Z,8.63
2018-12-18T22:22:18.413Z,8.49
2018-12-18T22:24:48.786Z,8.24
2018-12-18T22:27:17.406Z,8.04
2018-12-18T22:29:45.722Z,7.84
2018-12-18T22:32:15.151Z,8.00
2018-12-18T22:34:43.405Z,8.35
2018-12-18T22:37:11.718Z,7.98
2018-12-18T22:39:40.131Z,7.90
2018-12-18T22:42:09.736Z,7.99
2018-12-18T22:44:39.114Z,8.06
2018-12-18T22:47:07.547Z,8.00
2018-12-18T22:49:36.039Z,8.37
2018-12-18T22:52:04.575Z,8.15
2018-12-18T22:54:32.922Z,8.02
2018-12-18T23:03:35.220Z,8.00
2018-12-18T23:06:04.294Z,8.16
2018-12-18T23:08:32.880Z,7.86
2018-12-18T23:11:01.354Z,8.14
2018-12-18T23:13:29.654Z,8.25
2018-12-18T23:15:58.498Z,8.12
2018-12-18T23:18:26.880Z,8.34
2018-12-18T23:20:55.201Z,8.16
2018-12-18T23:23:23.531Z,8.19
2018-12-18T23:25:51.879Z,8.54
2018-12-18T23:28:20.661Z,8.45
2018-12-18T23:30:49.016Z,8.70
2018-12-18T23:33:17.333Z,8.53
2018-12-18T23:35:45.810Z,8.54
2018-12-18T23:38:14.100Z,8.69
2018-12-18T23:40:42.381Z,8.75
2018-12-18T23:43:10.679Z,8.42
2018-12-18T23:45:38.992Z,8.44
2018-12-18T23:48:07.427Z,8.55
2018-12-18T23:50:35.768Z,8.52
2018-12-18T23:53:10.610Z,7.96
2018-12-18T23:55:39.063Z,8.39
2018-12-18T23:58:07.345Z,8.57
